O61 weather

Cameron Park Airport
Cameron Park, California, United States

Public forecast

Using degrees Fahrenheit for public forecast. Weather courtesy of forecast.io.

Closest aviation weather report (METAR) to Cameron Park Airport

Report is more than 6 hours old.

Closest report is Placerville Airport, 11.3 nm (20.9 km) ENE. Retrieved 2020/07/04 16:35 UTC (18 hours ago):

KPVF 041635Z AUTO 18003KT 10SM CLR 25/03 A3013 RMK AO1

Closest aviation forecast (TAF) to Cameron Park Airport

Closest forecast is Sacramento Mather Airport, 16.5 nm (30.6 km) WSW. Retrieved 2020/07/05 06:36 UTC (4 hours ago):

TAF KMHR 050535Z 0506/0606 14004KT P6SM SKC FM052000 25006KT P6SM SKC FM060300 21009KT P6SM SKC AMD NOT SKED